Time;durP1;ratioP1;P1;durP2;ratioP2;P2;SDS_P1;SDS_P2;PMS_P1;PMS_P2;Temp;Humidity;BMP_temperature;BMP_pressure;BME280_temperature;BME280_humidity;BME280_pressure;Samples;Min_cycle;Max_cycle;Signal;HPM_P1;HPM_P2
2023/05/23 00:01:00;;;;;;;;;;;17.00;7.20;;;;;;5097013;28;19949;-76
2023/05/23 00:06:30;;;;;;;;;;;17.10;3.50;;;;;;5114512;28;19910;-76
2023/05/23 00:08:56;;;;;;;;;;;17.10;1.00;;;;;;5097771;28;19908;-76
2023/05/23 00:14:24;;;;;;;;;;;17.20;1.00;;;;;;5115582;28;19958;-84
2023/05/23 00:26:00;;;;;;;;;;;17.70;1.00;;;;;;5094866;28;20385;-83
2023/05/23 00:31:48;;;;;;;;;;;17.80;1.00;;;;;;5094976;28;19911;-83
2023/05/23 00:37:49;;;;;;;;;;;17.90;1.00;;;;;;5108144;28;19911;-83
2023/05/23 00:40:48;;;;;;;;;;;18.00;1.00;;;;;;5115721;28;19914;-83
2023/05/23 00:43:20;;;;;;;;;;;17.90;1.00;;;;;;5097427;28;19907;-83
2023/05/23 00:46:18;;;;;;;;;;;17.80;1.00;;;;;;5097097;28;19908;-83
2023/05/23 00:48:48;;;;;;;;;;;17.70;1.00;;;;;;5096991;28;19904;-83
2023/05/23 00:51:48;;;;;;;;;;;17.60;1.00;;;;;;5096813;28;19919;-83
2023/05/23 00:54:48;;;;;;;;;;;17.60;1.00;;;;;;5096800;28;20370;-83
2023/05/23 00:57:18;;;;;;;;;;;17.60;1.00;;;;;;5086893;28;19907;-83
2023/05/23 01:02:46;;;;;;;;;;;17.40;1.00;;;;;;5114289;28;19956;-83
2023/05/23 01:05:48;;;;;;;;;;;17.30;1.00;;;;;;5115010;28;19916;-83
2023/05/23 01:08:48;;;;;;;;;;;17.30;1.00;;;;;;5115278;28;19910;-83
2023/05/23 01:11:21;;;;;;;;;;;17.20;1.00;;;;;;5096646;28;19904;-83
2023/05/23 01:13:55;;;;;;;;;;;17.10;1.00;;;;;;5082210;28;19911;-76
2023/05/23 01:16:35;;;;;;;;;;;17.10;1.00;;;;;;5094570;28;19908;-76
2023/05/23 01:19:12;;;;;;;;;;;17.10;1.00;;;;;;5109999;28;19904;-76
2023/05/23 01:21:51;;;;;;;;;;;17.10;1.00;;;;;;5115265;28;19908;-76
2023/05/23 01:24:26;;;;;;;;;;;17.10;1.00;;;;;;5114880;28;19904;-76
2023/05/23 01:29:56;;;;;;;;;;;17.10;1.00;;;;;;5098659;28;19919;-76
2023/05/23 01:35:48;;;;;;;;;;;17.00;1.00;;;;;;5098233;28;19965;-76
2023/05/23 01:38:48;;;;;;;;;;;17.00;1.00;;;;;;5098597;28;19904;-76
2023/05/23 01:41:18;;;;;;;;;;;17.00;1.00;;;;;;5080592;28;19911;-76
2023/05/23 01:46:48;;;;;;;;;;;16.80;1.00;;;;;;5097434;28;20115;-83
2023/05/23 01:49:48;;;;;;;;;;;16.70;1.00;;;;;;5080068;28;19908;-83
2023/05/23 01:52:19;;;;;;;;;;;16.60;1.00;;;;;;5079955;28;19912;-83
2023/05/23 02:03:54;;;;;;;;;;;16.30;1.00;;;;;;5097728;28;19938;-83
2023/05/23 02:09:22;;;;;;;;;;;16.20;1.00;;;;;;5117998;28;19911;-82
2023/05/23 02:12:18;;;;;;;;;;;16.10;1.00;;;;;;5099936;28;19908;-83
2023/05/23 02:17:47;;;;;;;;;;;16.00;1.00;;;;;;5117660;28;19911;-83
2023/05/23 02:20:18;;;;;;;;;;;16.00;5.00;;;;;;5099837;28;19908;-83
2023/05/23 02:22:48;;;;;;;;;;;15.80;7.10;;;;;;5099793;28;19904;-83
2023/05/23 02:25:48;;;;;;;;;;;15.70;9.00;;;;;;5099550;28;19904;-83
2023/05/23 02:28:18;;;;;;;;;;;15.80;10.10;;;;;;5116582;28;19915;-83
2023/05/23 02:31:18;;;;;;;;;;;15.70;11.80;;;;;;5098535;28;19908;-83
2023/05/23 02:34:18;;;;;;;;;;;15.70;12.90;;;;;;5118076;28;19904;-83
2023/05/23 02:36:48;;;;;;;;;;;15.60;15.00;;;;;;5117813;28;19907;-83
2023/05/23 02:39:18;;;;;;;;;;;15.60;19.10;;;;;;5098167;28;19908;-83
2023/05/23 02:41:48;;;;;;;;;;;15.50;20.80;;;;;;5099413;28;19911;-83
2023/05/23 02:44:30;;;;;;;;;;;15.50;23.90;;;;;;5118050;28;19904;-76
2023/05/23 02:47:18;;;;;;;;;;;15.40;24.10;;;;;;5117679;28;19915;-75
2023/05/23 02:49:43;;;;;;;;;;;15.40;25.20;;;;;;5117751;28;20002;-76
2023/05/23 02:52:09;;;;;;;;;;;15.40;27.00;;;;;;5117333;28;19950;-76
2023/05/23 02:54:48;;;;;;;;;;;15.40;28.90;;;;;;5116469;28;19919;-76
2023/05/23 02:57:18;;;;;;;;;;;15.40;29.10;;;;;;5117357;28;19956;-76
2023/05/23 02:59:48;;;;;;;;;;;15.30;29.20;;;;;;5117371;28;19904;-76
2023/05/23 03:02:18;;;;;;;;;;;15.30;31.60;;;;;;5098919;28;20340;-76
2023/05/23 03:05:18;;;;;;;;;;;15.20;32.60;;;;;;5116936;28;19942;-76
2023/05/23 03:07:48;;;;;;;;;;;15.20;38.40;;;;;;5117311;28;19904;-82
2023/05/23 03:10:18;;;;;;;;;;;15.20;41.00;;;;;;5117163;28;19904;-82
2023/05/23 03:16:18;;;;;;;;;;;15.20;37.30;;;;;;5116688;28;19953;-82
2023/05/23 03:19:00;;;;;;;;;;;15.20;36.80;;;;;;5098594;28;19939;-82
2023/05/23 03:24:48;;;;;;;;;;;15.00;36.00;;;;;;5096194;28;20381;-82
2023/05/23 03:27:18;;;;;;;;;;;15.00;34.30;;;;;;5078194;28;19990;-82
2023/05/23 03:29:48;;;;;;;;;;;14.90;37.30;;;;;;5096661;28;19904;-83
2023/05/23 03:32:18;;;;;;;;;;;14.90;45.40;;;;;;5077957;28;19911;-82
2023/05/23 03:35:18;;;;;;;;;;;14.90;46.30;;;;;;5077928;28;19915;-82
2023/05/23 03:37:48;;;;;;;;;;;14.90;46.40;;;;;;5078136;28;19911;-82
2023/05/23 03:40:18;;;;;;;;;;;14.90;46.20;;;;;;5077914;28;19950;-82
2023/05/23 03:42:48;;;;;;;;;;;14.80;46.10;;;;;;5077829;28;19904;-82
2023/05/23 03:45:18;;;;;;;;;;;14.80;46.30;;;;;;5078138;28;19911;-82
2023/05/23 03:50:47;;;;;;;;;;;14.80;46.30;;;;;;5108278;28;19918;-82
2023/05/23 03:53:12;;;;;;;;;;;14.80;46.10;;;;;;5097644;28;20002;-82
2023/05/23 03:55:48;;;;;;;;;;;14.70;46.00;;;;;;5116399;28;19908;-82
2023/05/23 03:58:18;;;;;;;;;;;14.70;46.10;;;;;;5116704;28;19904;-85
2023/05/23 04:01:18;;;;;;;;;;;14.80;46.30;;;;;;5098169;28;19910;-89
2023/05/23 04:06:46;;;;;;;;;;;14.70;46.10;;;;;;5116099;28;19910;-89
2023/05/23 04:09:18;;;;;;;;;;;15.00;28.80;;;;;;5098119;28;19908;-89
2023/05/23 04:11:48;;;;;;;;;;;14.90;23.40;;;;;;5116157;28;19903;-89
2023/05/23 04:14:21;;;;;;;;;;;15.00;15.40;;;;;;5098340;28;19904;-89
2023/05/23 04:17:18;;;;;;;;;;;15.00;12.00;;;;;;5098200;28;20350;-89
2023/05/23 04:19:49;;;;;;;;;;;15.10;10.20;;;;;;5096313;28;19908;-89
2023/05/23 04:22:48;;;;;;;;;;;15.20;3.00;;;;;;5098048;28;19904;-89
2023/05/23 04:25:19;;;;;;;;;;;15.20;1.00;;;;;;5098390;28;19914;-89
2023/05/23 04:27:48;;;;;;;;;;;15.20;1.00;;;;;;5098148;28;20283;-89
2023/05/23 04:36:17;;;;;;;;;;;15.60;1.00;;;;;;5115802;28;20377;-88
2023/05/23 04:38:48;;;;;;;;;;;15.70;1.00;;;;;;5097542;28;19903;-89
2023/05/23 04:44:17;;;;;;;;;;;15.90;1.00;;;;;;5115968;28;19910;-88
2023/05/23 04:46:49;;;;;;;;;;;16.00;1.00;;;;;;5097550;28;19904;-88
2023/05/23 04:49:24;;;;;;;;;;;16.20;1.00;;;;;;5097501;28;19904;-89
2023/05/23 04:54:52;;;;;;;;;;;16.40;1.00;;;;;;5094902;28;19934;-89
2023/05/23 04:57:42;;;;;;;;;;;16.50;1.00;;;;;;5076981;28;20426;-88
2023/05/23 05:00:19;;;;;;;;;;;16.60;1.00;;;;;;5077390;28;20002;-83
2023/05/23 05:03:18;;;;;;;;;;;16.70;1.00;;;;;;5101469;28;20007;-83
2023/05/23 05:08:48;;;;;;;;;;;17.00;1.00;;;;;;5109174;28;19960;-83
2023/05/23 05:11:18;;;;;;;;;;;17.10;1.00;;;;;;5095896;28;19908;-83
2023/05/23 05:13:48;;;;;;;;;;;17.30;1.00;;;;;;5090822;28;19915;-85
2023/05/23 05:16:18;;;;;;;;;;;17.50;1.00;;;;;;5097347;28;19915;-87
2023/05/23 05:18:48;;;;;;;;;;;17.60;1.00;;;;;;5097188;28;20049;-87
2023/05/23 05:21:18;;;;;;;;;;;17.80;1.00;;;;;;5097337;28;19904;-87
2023/05/23 05:24:19;;;;;;;;;;;17.90;1.00;;;;;;5096449;28;19911;-87
2023/05/23 05:26:48;;;;;;;;;;;17.90;1.00;;;;;;5097049;28;19908;-87
2023/05/23 05:29:18;;;;;;;;;;;18.00;1.00;;;;;;5092257;28;19937;-85
2023/05/23 05:31:48;;;;;;;;;;;18.00;1.00;;;;;;5092562;28;19908;-84
2023/05/23 05:34:18;;;;;;;;;;;18.00;1.00;;;;;;5091428;28;20252;-84
2023/05/23 05:36:48;;;;;;;;;;;18.10;1.00;;;;;;5099564;28;19994;-82
2023/05/23 05:42:16;;;;;;;;;;;18.20;1.00;;;;;;5094324;28;19953;-83
2023/05/23 05:44:48;;;;;;;;;;;18.20;1.00;;;;;;5076805;28;19961;-87
2023/05/23 05:47:18;;;;;;;;;;;18.30;1.00;;;;;;5076493;28;19904;-87
2023/05/23 05:49:52;;;;;;;;;;;18.30;1.00;;;;;;5088429;28;19939;-87
2023/05/23 05:52:17;;;;;;;;;;;18.20;1.00;;;;;;5113857;28;19961;-87
2023/05/23 05:55:18;;;;;;;;;;;18.20;1.00;;;;;;5084255;28;19999;-87
2023/05/23 05:57:48;;;;;;;;;;;18.20;1.00;;;;;;5087427;28;19908;-86
2023/05/23 06:00:48;;;;;;;;;;;18.20;1.00;;;;;;5080956;28;19904;-86
2023/05/23 06:03:18;;;;;;;;;;;18.10;1.00;;;;;;5088888;28;19930;-87
2023/05/23 06:05:48;;;;;;;;;;;18.10;1.00;;;;;;5088576;28;19954;-87
2023/05/23 06:08:18;;;;;;;;;;;18.00;1.00;;;;;;5095227;28;19915;-86
2023/05/23 06:13:47;;;;;;;;;;;18.00;1.00;;;;;;5104188;28;19915;-86
2023/05/23 06:16:18;;;;;;;;;;;18.20;1.00;;;;;;5086793;28;19916;-83
2023/05/23 06:19:00;;;;;;;;;;;18.10;1.00;;;;;;5090619;28;19955;-83
2023/05/23 06:21:54;;;;;;;;;;;18.30;1.00;;;;;;5087817;28;19918;-83
2023/05/23 06:33:54;;;;;;;;;;;18.50;1.00;;;;;;5108762;28;19957;-86
2023/05/23 06:42:30;;;;;;;;;;;18.50;1.00;;;;;;5097441;28;19915;-85
2023/05/23 06:51:05;;;;;;;;;;;18.40;1.00;;;;;;5096804;28;19922;-87
2023/05/23 06:53:48;;;;;;;;;;;18.40;1.00;;;;;;5089418;28;19912;-84
2023/05/23 06:56:14;;;;;;;;;;;18.30;1.00;;;;;;5091585;28;19907;-82
2023/05/23 07:04:46;;;;;;;;;;;18.40;1.00;;;;;;5104740;28;19946;-84
2023/05/23 07:10:45;;;;;;;;;;;18.50;1.00;;;;;;5117121;28;19910;-84
2023/05/23 07:16:14;;;;;;;;;;;19.10;1.00;;;;;;5096978;28;19919;-86
2023/05/23 07:25:06;;;;;;;;;;;19.50;1.00;;;;;;5095997;28;19911;-87
2023/05/23 07:33:38;;;;;;;;;;;20.40;1.00;;;;;;5113143;28;19911;-88
2023/05/23 07:42:09;;;;;;;;;;;21.40;1.00;;;;;;5104364;28;20030;-89
2023/05/23 07:47:38;;;;;;;;;;;21.50;1.00;;;;;;5096232;28;19955;-87
2023/05/23 07:50:04;;;;;;;;;;;21.40;1.00;;;;;;5077958;28;19904;-87
2023/05/23 07:53:07;;;;;;;;;;;21.20;1.00;;;;;;5078117;28;19982;-87
2023/05/23 07:55:48;;;;;;;;;;;20.70;1.00;;;;;;5087203;28;19921;-87
2023/05/23 07:58:18;;;;;;;;;;;20.30;1.00;;;;;;5081505;28;19908;-88
2023/05/23 08:03:54;;;;;;;;;;;20.40;1.00;;;;;;5096266;28;20439;-88
2023/05/23 08:06:24;;;;;;;;;;;20.50;1.00;;;;;;5090262;28;19993;-88
2023/05/23 08:09:06;;;;;;;;;;;20.80;1.00;;;;;;5097161;28;19957;-88
2023/05/23 08:14:35;;;;;;;;;;;21.20;1.00;;;;;;5115508;28;19919;-89
2023/05/23 08:17:36;;;;;;;;;;;20.90;1.00;;;;;;5085758;28;19903;-89
2023/05/23 08:23:05;;;;;;;;;;;21.40;1.00;;;;;;5112645;28;19995;-90
2023/05/23 08:28:33;;;;;;;;;;;21.70;1.00;;;;;;5115172;28;19915;-89
2023/05/23 08:31:26;;;;;;;;;;;21.60;1.00;;;;;;5097450;28;19904;-90
2023/05/23 08:39:57;;;;;;;;;;;21.40;1.00;;;;;;5112331;28;19953;-87
2023/05/23 08:45:29;;;;;;;;;;;21.90;1.00;;;;;;5115589;28;19960;-89
2023/05/23 08:50:58;;;;;;;;;;;22.30;1.00;;;;;;5094153;28;19954;-82
2023/05/23 08:56:27;;;;;;;;;;;22.90;1.00;;;;;;5094488;28;20380;-82
2023/05/23 09:05:12;;;;;;;;;;;23.30;1.00;;;;;;5095003;28;19911;-90
2023/05/23 09:10:41;;;;;;;;;;;23.20;1.00;;;;;;5115572;28;20004;-91
2023/05/23 09:25:19;;;;;;;;;;;22.20;1.00;;;;;;5115239;28;19910;-90
2023/05/23 09:30:56;;;;;;;;;;;22.20;1.00;;;;;;5094754;28;19951;-90
2023/05/23 09:36:49;;;;;;;;;;;22.00;1.00;;;;;;5094670;28;19931;-89
2023/05/23 09:42:19;;;;;;;;;;;22.10;1.00;;;;;;5094672;28;19986;-90
2023/05/23 09:50:51;;;;;;;;;;;22.50;1.00;;;;;;5097595;28;19983;-82
2023/05/23 09:53:48;;;;;;;;;;;22.70;1.00;;;;;;5097833;28;19908;-82
2023/05/23 09:56:18;;;;;;;;;;;23.00;1.00;;;;;;5097607;28;19912;-82
2023/05/23 10:05:12;;;;;;;;;;;23.50;1.00;;;;;;5106061;28;19962;-91
2023/05/23 10:11:05;;;;;;;;;;;23.80;1.00;;;;;;5097963;28;19915;-89
2023/05/23 10:13:30;;;;;;;;;;;23.80;1.00;;;;;;5011838;28;20007;-90
2023/05/23 10:19:02;;;;;;;;;;;23.30;1.00;;;;;;5016333;28;20376;-82
2023/05/23 10:21:37;;;;;;;;;;;23.00;1.00;;;;;;5015187;28;19996;-82
2023/05/23 10:27:15;;;;;;;;;;;22.40;1.00;;;;;;5015567;28;19956;-82
2023/05/23 10:32:45;;;;;;;;;;;22.10;1.00;;;;;;5033652;28;19915;-82
2023/05/23 10:41:20;;;;;;;;;;;23.00;1.00;;;;;;5015033;28;19956;-82
2023/05/23 10:47:00;;;;;;;;;;;23.50;1.00;;;;;;5032900;28;19995;-81
2023/05/23 10:49:53;;;;;;;;;;;23.90;1.00;;;;;;5022241;28;19913;-89
2023/05/23 10:52:44;;;;;;;;;;;24.00;1.00;;;;;;5100975;28;19951;-91
2023/05/23 10:59:00;;;;;;;;;;;24.00;1.00;;;;;;5096751;28;19995;-88
2023/05/23 11:04:35;;;;;;;;;;;23.50;1.00;;;;;;5097533;28;19939;-89
2023/05/23 11:13:28;;;;;;;;;;;22.90;1.00;;;;;;5100627;28;19930;-81
2023/05/23 11:16:29;;;;;;;;;;;22.80;1.00;;;;;;5084197;28;20270;-80
2023/05/23 11:22:12;;;;;;;;;;;22.80;1.00;;;;;;5097242;28;19933;-88
2023/05/23 11:27:55;;;;;;;;;;;23.10;1.00;;;;;;5098377;28;19912;-88
2023/05/23 11:33:23;;;;;;;;;;;23.40;1.00;;;;;;5108370;28;20000;-89
2023/05/23 11:35:54;;;;;;;;;;;23.30;1.00;;;;;;5078252;28;19958;-81
2023/05/23 11:38:24;;;;;;;;;;;23.20;1.00;;;;;;5095728;28;19908;-82
2023/05/23 11:40:50;;;;;;;;;;;23.60;1.00;;;;;;5095500;28;19919;-74
2023/05/23 11:43:16;;;;;;;;;;;24.00;1.00;;;;;;5096100;28;19908;-75
2023/05/23 11:45:46;;;;;;;;;;;24.30;1.00;;;;;;5096274;28;19908;-75
2023/05/23 11:48:13;;;;;;;;;;;24.60;1.00;;;;;;5103559;28;19907;-75
2023/05/23 11:50:48;;;;;;;;;;;24.40;1.00;;;;;;5103571;28;19987;-75
2023/05/23 11:53:17;;;;;;;;;;;24.60;1.00;;;;;;5100299;28;19919;-74
2023/05/23 11:55:53;;;;;;;;;;;24.70;1.00;;;;;;5094608;28;20318;-74
2023/05/23 11:58:29;;;;;;;;;;;24.70;1.00;;;;;;5094699;28;19954;-75
2023/05/23 12:01:13;;;;;;;;;;;24.70;1.00;;;;;;5111548;28;19947;-74
2023/05/23 12:03:46;;;;;;;;;;;24.60;1.00;;;;;;5113358;28;19994;-74
2023/05/23 12:06:15;;;;;;;;;;;24.70;1.00;;;;;;5105094;28;20251;-74
2023/05/23 12:08:45;;;;;;;;;;;24.80;1.00;;;;;;5100787;28;19947;-75
2023/05/23 12:11:12;;;;;;;;;;;24.60;1.00;;;;;;5108577;28;20347;-74
2023/05/23 12:13:54;;;;;;;;;;;24.90;1.00;;;;;;5096380;28;19915;-74
2023/05/23 12:16:20;;;;;;;;;;;25.00;1.00;;;;;;5094707;28;20014;-74
2023/05/23 12:18:48;;;;;;;;;;;24.90;1.00;;;;;;5112883;28;19960;-74
2023/05/23 12:21:18;;;;;;;;;;;24.50;1.00;;;;;;5097305;28;19904;-74
2023/05/23 12:33:12;;;;;;;;;;;24.40;1.00;;;;;;5103100;28;19965;-76
2023/05/23 12:35:47;;;;;;;;;;;24.10;1.00;;;;;;5109070;28;19948;-76
2023/05/23 12:38:36;;;;;;;;;;;24.00;1.00;;;;;;5102944;28;19911;-76
2023/05/23 12:41:09;;;;;;;;;;;24.20;1.00;;;;;;5092183;28;19980;-77
2023/05/23 12:44:03;;;;;;;;;;;24.40;1.00;;;;;;5115004;28;19904;-76
2023/05/23 12:46:48;;;;;;;;;;;24.30;1.00;;;;;;5073573;28;20377;-76
2023/05/23 12:49:14;;;;;;;;;;;24.30;1.00;;;;;;5094661;28;19904;-74
2023/05/23 12:52:12;;;;;;;;;;;24.30;1.00;;;;;;5094643;28;19920;-76
2023/05/23 12:55:00;;;;;;;;;;;24.40;1.00;;;;;;5093994;28;19958;-77
2023/05/23 13:00:36;;;;;;;;;;;24.40;1.00;;;;;;5094536;28;19950;-76
2023/05/23 13:03:02;;;;;;;;;;;24.10;1.00;;;;;;5094702;28;19908;-77
2023/05/23 13:05:37;;;;;;;;;;;24.20;1.00;;;;;;5094759;28;19970;-74
2023/05/23 13:17:12;;;;;;;;;;;24.80;1.00;;;;;;5107683;28;20003;-75
2023/05/23 13:19:38;;;;;;;;;;;24.80;1.00;;;;;;5095939;28;19935;-76
2023/05/23 13:22:04;;;;;;;;;;;24.60;1.00;;;;;;5095396;28;20306;-75
2023/05/23 13:24:30;;;;;;;;;;;24.50;1.00;;;;;;5100643;28;20371;-75
2023/05/23 13:27:02;;;;;;;;;;;24.30;1.00;;;;;;5100595;28;19955;-77
2023/05/23 13:29:27;;;;;;;;;;;24.20;1.00;;;;;;5100075;28;20432;-76
2023/05/23 13:31:53;;;;;;;;;;;23.80;1.00;;;;;;5100425;28;19907;-77
2023/05/23 13:34:19;;;;;;;;;;;23.50;1.00;;;;;;5100067;28;19931;-81
2023/05/23 13:40:25;;;;;;;;;;;22.90;1.00;;;;;;5104361;28;19957;-78
2023/05/23 13:42:50;;;;;;;;;;;22.80;1.00;;;;;;5099366;28;19931;-78
2023/05/23 13:45:16;;;;;;;;;;;22.60;1.00;;;;;;5101530;28;19912;-76
2023/05/23 13:47:42;;;;;;;;;;;22.50;1.00;;;;;;5106552;28;20219;-76
2023/05/23 13:50:08;;;;;;;;;;;22.70;1.00;;;;;;5120482;28;20355;-75
2023/05/23 13:52:34;;;;;;;;;;;23.00;1.00;;;;;;5120331;28;19912;-75
2023/05/23 13:55:00;;;;;;;;;;;23.30;1.00;;;;;;5119158;28;19908;-75
2023/05/23 13:57:26;;;;;;;;;;;23.00;1.00;;;;;;5116763;28;19957;-75
2023/05/23 13:59:51;;;;;;;;;;;23.20;1.00;;;;;;5117053;28;19904;-75
2023/05/23 14:02:17;;;;;;;;;;;23.40;1.00;;;;;;5111780;28;19916;-74
2023/05/23 14:04:49;;;;;;;;;;;23.20;1.00;;;;;;5099762;28;20321;-75
2023/05/23 14:10:32;;;;;;;;;;;23.40;1.00;;;;;;5103269;28;20377;-77
2023/05/23 14:13:07;;;;;;;;;;;23.20;1.00;;;;;;5118866;28;19907;-75
2023/05/23 14:16:07;;;;;;;;;;;23.60;1.00;;;;;;5106216;28;19911;-77
2023/05/23 14:18:37;;;;;;;;;;;23.60;1.00;;;;;;5121276;28;20389;-77
2023/05/23 14:24:06;;;;;;;;;;;24.10;1.00;;;;;;5119712;28;19933;-73
2023/05/23 14:26:37;;;;;;;;;;;23.90;1.00;;;;;;5107427;28;19995;-75
2023/05/23 14:29:07;;;;;;;;;;;23.60;1.00;;;;;;5100230;28;19904;-76
2023/05/23 14:31:37;;;;;;;;;;;23.40;1.00;;;;;;5101066;28;19912;-76
2023/05/23 14:34:20;;;;;;;;;;;23.20;1.00;;;;;;5098944;28;19904;-76
2023/05/23 14:37:12;;;;;;;;;;;22.80;1.00;;;;;;5096614;28;20029;-76
2023/05/23 14:39:43;;;;;;;;;;;22.70;1.00;;;;;;5097215;28;19911;-81
2023/05/23 14:42:08;;;;;;;;;;;22.50;1.00;;;;;;5096763;28;19904;-76
2023/05/23 14:44:55;;;;;;;;;;;22.50;1.00;;;;;;5096322;28;19908;-74
2023/05/23 14:47:20;;;;;;;;;;;22.70;1.00;;;;;;5104649;28;19908;-75
2023/05/23 14:49:53;;;;;;;;;;;22.70;1.00;;;;;;5111987;28;19911;-77
2023/05/23 14:55:49;;;;;;;;;;;23.00;1.00;;;;;;5096281;28;19915;-76
2023/05/23 14:58:20;;;;;;;;;;;23.00;1.00;;;;;;5097169;28;19922;-75
2023/05/23 15:03:48;;;;;;;;;;;23.30;1.00;;;;;;5104918;28;20467;-76
2023/05/23 15:06:19;;;;;;;;;;;23.40;1.00;;;;;;5096922;28;19904;-74
2023/05/23 15:11:55;;;;;;;;;;;23.30;1.00;;;;;;5107664;28;19914;-74
2023/05/23 15:14:21;;;;;;;;;;;23.20;1.00;;;;;;5108366;28;20251;-75
2023/05/23 15:16:55;;;;;;;;;;;23.10;1.00;;;;;;5096886;28;19912;-74
2023/05/23 15:19:31;;;;;;;;;;;23.00;1.00;;;;;;5096452;28;19931;-74
2023/05/23 15:22:19;;;;;;;;;;;23.00;1.00;;;;;;5096853;28;19908;-75
2023/05/23 15:27:47;;;;;;;;;;;22.90;1.00;;;;;;5096201;28;19915;-76
2023/05/23 15:30:13;;;;;;;;;;;23.70;1.00;;;;;;5100494;28;19912;-75
2023/05/23 15:32:38;;;;;;;;;;;23.90;1.00;;;;;;5107815;28;20014;-75
2023/05/23 15:35:04;;;;;;;;;;;24.80;1.00;;;;;;5116123;28;19908;-74
2023/05/23 15:37:31;;;;;;;;;;;25.30;1.00;;;;;;5098133;28;19908;-74
2023/05/23 15:39:56;;;;;;;;;;;26.30;1.00;;;;;;5100910;28;19915;-75
2023/05/23 15:42:22;;;;;;;;;;;26.60;1.00;;;;;;5100243;28;19908;-75
2023/05/23 15:44:48;;;;;;;;;;;27.90;1.00;;;;;;5095961;28;19910;-74
2023/05/23 15:47:13;;;;;;;;;;;28.70;1.00;;;;;;5097653;28;19910;-75
2023/05/23 15:49:39;;;;;;;;;;;28.80;1.00;;;;;;5107074;28;19958;-74
2023/05/23 15:52:07;;;;;;;;;;;28.80;1.00;;;;;;5103273;28;19955;-75
2023/05/23 15:54:32;;;;;;;;;;;29.20;1.00;;;;;;5095918;28;19908;-75
2023/05/23 15:56:58;;;;;;;;;;;30.40;1.00;;;;;;5102752;28;19957;-74
2023/05/23 15:59:24;;;;;;;;;;;31.10;1.00;;;;;;5116011;28;20263;-74
2023/05/23 16:01:55;;;;;;;;;;;32.00;1.00;;;;;;5098217;28;19904;-75
2023/05/23 16:07:23;;;;;;;;;;;33.50;1.00;;;;;;5098348;28;19922;-90
2023/05/23 16:12:52;;;;;;;;;;;33.10;1.00;;;;;;5099738;28;19954;-93
2023/05/23 16:15:31;;;;;;;;;;;31.20;1.00;;;;;;5088140;28;19951;-92
2023/05/23 16:21:01;;;;;;;;;;;31.90;1.00;;;;;;5095726;28;19912;-90
2023/05/23 16:29:33;;;;;;;;;;;35.00;1.00;;;;;;5095272;28;19915;-92
2023/05/23 16:35:25;;;;;;;;;;;35.20;1.00;;;;;;5095295;28;19958;-91
2023/05/23 16:38:19;;;;;;;;;;;35.40;1.00;;;;;;5077844;28;19904;-90
2023/05/23 16:43:47;;;;;;;;;;;35.70;1.00;;;;;;5094619;28;19923;-88
2023/05/23 16:46:31;;;;;;;;;;;36.20;1.00;;;;;;5090363;28;19908;-85
2023/05/23 16:51:59;;;;;;;;;;;35.80;1.00;;;;;;5094907;28;19926;-86
2023/05/23 17:00:31;;;;;;;;;;;35.00;1.00;;;;;;5094304;28;20033;-88
2023/05/23 17:06:00;;;;;;;;;;;34.80;1.00;;;;;;5095369;28;19911;-93
2023/05/23 17:08:49;;;;;;;;;;;34.60;1.00;;;;;;5088985;28;19907;-92
2023/05/23 17:11:43;;;;;;;;;;;34.70;1.00;;;;;;5080730;28;19908;-85
2023/05/23 17:17:11;;;;;;;;;;;34.90;1.00;;;;;;5102487;28;19918;-86
2023/05/23 17:25:43;;;;;;;;;;;35.10;1.00;;;;;;5094713;28;19915;-86
2023/05/23 17:28:09;;;;;;;;;;;34.00;1.00;;;;;;5103570;28;19908;-86
2023/05/23 17:33:37;;;;;;;;;;;34.20;1.00;;;;;;5104255;28;19930;-87
2023/05/23 17:36:25;;;;;;;;;;;33.70;1.00;;;;;;5082421;28;19912;-86
2023/05/23 17:39:08;;;;;;;;;;;32.80;1.00;;;;;;5094696;28;19915;-85
2023/05/23 17:47:40;;;;;;;;;;;28.10;1.00;;;;;;5114525;28;19911;-84
2023/05/23 17:50:06;;;;;;;;;;;26.70;1.00;;;;;;5095695;28;19903;-83
2023/05/23 17:52:31;;;;;;;;;;;25.70;1.00;;;;;;5114912;28;19920;-88
2023/05/23 17:58:19;;;;;;;;;;;23.00;1.00;;;;;;5096144;28;19915;-86
2023/05/23 18:03:47;;;;;;;;;;;21.80;1.00;;;;;;5093589;28;20378;-83
2023/05/23 18:12:25;;;;;;;;;;;20.10;1.00;;;;;;5098023;28;20399;-88
2023/05/23 18:17:56;;;;;;;;;;;19.20;1.00;;;;;;5115090;28;19953;-89
2023/05/23 18:26:27;;;;;;;;;;;18.40;1.00;;;;;;5097649;28;19911;-91
2023/05/23 18:28:55;;;;;;;;;;;18.10;1.00;;;;;;5079756;28;19908;-92
2023/05/23 18:40:37;;;;;;;;;;;17.20;1.00;;;;;;5098072;28;19911;-91
2023/05/23 18:43:37;;;;;;;;;;;17.00;1.00;;;;;;5094897;28;19946;-90
2023/05/23 18:46:15;;;;;;;;;;;16.70;1.00;;;;;;5096877;28;20003;-91
2023/05/23 18:57:49;;;;;;;;;;;15.90;1.00;;;;;;5106198;28;19988;-88
2023/05/23 19:00:31;;;;;;;;;;;15.80;1.00;;;;;;5093288;28;19904;-91
2023/05/23 19:03:01;;;;;;;;;;;15.60;1.00;;;;;;5099491;28;19912;-91
2023/05/23 19:11:37;;;;;;;;;;;15.30;1.00;;;;;;5096818;28;19927;-86
2023/05/23 19:23:13;;;;;;;;;;;14.80;1.00;;;;;;5096869;28;19911;-86
2023/05/23 19:25:49;;;;;;;;;;;14.70;1.00;;;;;;5096111;28;19903;-91
2023/05/23 19:31:17;;;;;;;;;;;14.50;1.00;;;;;;5096837;28;19951;-91
2023/05/23 19:36:46;;;;;;;;;;;14.40;1.00;;;;;;5103483;28;19960;-91
2023/05/23 19:39:12;;;;;;;;;;;14.50;1.00;;;;;;5089787;28;20272;-86
2023/05/23 19:44:46;;;;;;;;;;;14.30;1.00;;;;;;5096190;28;19918;-86
2023/05/23 19:50:15;;;;;;;;;;;14.20;1.00;;;;;;5095980;28;19974;-85
2023/05/23 19:52:40;;;;;;;;;;;14.30;1.00;;;;;;5078713;28;19912;-86
2023/05/23 19:58:31;;;;;;;;;;;14.10;1.00;;;;;;5105080;28;19915;-85
2023/05/23 20:01:26;;;;;;;;;;;14.10;1.00;;;;;;5098502;28;20280;-85
2023/05/23 20:04:01;;;;;;;;;;;14.10;1.00;;;;;;5090341;28;19904;-85
2023/05/23 20:06:37;;;;;;;;;;;14.10;1.00;;;;;;5086740;28;19970;-85
2023/05/23 20:09:25;;;;;;;;;;;14.10;1.00;;;;;;5084584;28;20479;-91
2023/05/23 20:12:25;;;;;;;;;;;14.20;1.00;;;;;;5098317;28;19998;-91
2023/05/23 20:17:55;;;;;;;;;;;14.10;1.00;;;;;;5095346;28;19910;-75
2023/05/23 20:23:23;;;;;;;;;;;14.20;1.00;;;;;;5095064;28;19969;-81
2023/05/23 20:25:50;;;;;;;;;;;14.10;1.00;;;;;;5107540;28;20346;-81
2023/05/23 20:28:19;;;;;;;;;;;14.20;1.00;;;;;;5099827;28;19904;-81
2023/05/23 20:33:48;;;;;;;;;;;14.20;1.00;;;;;;5094515;28;19915;-80
2023/05/23 20:42:20;;;;;;;;;;;14.30;1.00;;;;;;5094578;28;19952;-81
2023/05/23 20:50:51;;;;;;;;;;;14.30;1.00;;;;;;5094206;28;19919;-80
2023/05/23 20:53:16;;;;;;;;;;;14.30;1.00;;;;;;5076407;28;19915;-80
2023/05/23 20:55:43;;;;;;;;;;;14.30;1.00;;;;;;5101795;28;20362;-74
2023/05/23 20:58:20;;;;;;;;;;;14.30;1.00;;;;;;5090836;28;19908;-74
2023/05/23 21:00:49;;;;;;;;;;;14.30;1.00;;;;;;5094818;28;19908;-74
2023/05/23 21:03:15;;;;;;;;;;;14.30;1.00;;;;;;5103144;28;19935;-74
2023/05/23 21:05:41;;;;;;;;;;;14.30;1.00;;;;;;5115042;28;19907;-74
2023/05/23 21:08:07;;;;;;;;;;;14.30;1.00;;;;;;5114497;28;19952;-74
2023/05/23 21:10:33;;;;;;;;;;;14.30;1.00;;;;;;5102037;28;19916;-75
2023/05/23 21:13:01;;;;;;;;;;;14.20;1.00;;;;;;5094041;28;19904;-74
2023/05/23 21:15:27;;;;;;;;;;;14.10;1.00;;;;;;5094297;28;19916;-74
2023/05/23 21:17:55;;;;;;;;;;;14.10;1.00;;;;;;5105091;28;19996;-74
2023/05/23 21:20:25;;;;;;;;;;;14.10;1.00;;;;;;5111741;28;19950;-75
2023/05/23 21:22:55;;;;;;;;;;;14.00;1.00;;;;;;5095619;28;20343;-74
2023/05/23 21:25:26;;;;;;;;;;;14.00;1.00;;;;;;5115070;28;19908;-75
2023/05/23 21:27:51;;;;;;;;;;;14.00;1.00;;;;;;5107885;28;19911;-75
2023/05/23 21:30:25;;;;;;;;;;;13.90;1.00;;;;;;5094573;28;19908;-74
2023/05/23 21:32:51;;;;;;;;;;;13.80;1.00;;;;;;5113873;28;19915;-74
2023/05/23 21:35:25;;;;;;;;;;;13.80;1.00;;;;;;5114134;28;19916;-75
2023/05/23 21:38:07;;;;;;;;;;;13.70;1.00;;;;;;5113496;28;19904;-75
2023/05/23 21:40:32;;;;;;;;;;;13.60;1.00;;;;;;5114180;28;20274;-74
2023/05/23 21:42:58;;;;;;;;;;;13.60;1.00;;;;;;5094612;28;19908;-74
2023/05/23 21:45:24;;;;;;;;;;;13.60;1.00;;;;;;5098156;28;19908;-74
2023/05/23 21:47:55;;;;;;;;;;;13.60;1.00;;;;;;5100192;28;19951;-75
2023/05/23 21:50:20;;;;;;;;;;;13.60;1.00;;;;;;5118599;28;19908;-74
2023/05/23 21:52:49;;;;;;;;;;;13.50;1.00;;;;;;5098757;28;19958;-75
2023/05/23 21:55:49;;;;;;;;;;;13.50;1.00;;;;;;5105151;28;19912;-74
2023/05/23 21:58:37;;;;;;;;;;;13.50;1.00;;;;;;5106753;28;19982;-74
2023/05/23 22:01:02;;;;;;;;;;;13.50;1.00;;;;;;5103610;28;19952;-74
2023/05/23 22:03:31;;;;;;;;;;;13.40;1.00;;;;;;5117801;28;19991;-75
2023/05/23 22:05:56;;;;;;;;;;;13.40;1.00;;;;;;5097819;28;19919;-75
2023/05/23 22:08:55;;;;;;;;;;;13.30;1.00;;;;;;5107868;28;19907;-75
2023/05/23 22:14:49;;;;;;;;;;;13.20;1.00;;;;;;5117423;28;19987;-80
2023/05/23 22:20:18;;;;;;;;;;;13.10;1.00;;;;;;5117922;28;19910;-74
2023/05/23 22:22:55;;;;;;;;;;;13.10;1.00;;;;;;5117046;28;20262;-74
2023/05/23 22:25:37;;;;;;;;;;;13.00;1.00;;;;;;5097721;28;20283;-75
2023/05/23 22:28:07;;;;;;;;;;;13.00;1.00;;;;;;5097582;28;20424;-74
2023/05/23 22:30:33;;;;;;;;;;;13.00;1.00;;;;;;5097276;28;20367;-75
2023/05/23 22:33:00;;;;;;;;;;;12.90;1.00;;;;;;5097467;28;19904;-74